Time;durP1;ratioP1;P1;durP2;ratioP2;P2;SDS_P1;SDS_P2;PMS_P1;PMS_P2;Temp;Humidity;BMP_temperature;BMP_pressure;BME280_temperature;BME280_humidity;BME280_pressure;Samples;Min_cycle;Max_cycle;Signal;HPM_P1;HPM_P2
2021/05/04 00:01:42;;;;;;;3.15;1.85;;;13.20;54.20;;;;;;5093462;28;20069;-80
2021/05/04 00:04:07;;;;;;;7.28;2.85;;;13.10;54.70;;;;;;5093607;28;20016;-81
2021/05/04 00:06:33;;;;;;;6.13;1.50;;;13.00;54.70;;;;;;5087369;28;20035;-79
2021/05/04 00:08:58;;;;;;;7.85;1.80;;;13.00;54.70;;;;;;5090055;28;20024;-80
2021/05/04 00:11:24;;;;;;;6.68;1.70;;;13.00;55.80;;;;;;5090455;28;20031;-81
2021/05/04 00:13:50;;;;;;;2.28;1.38;;;12.90;56.70;;;;;;5091180;28;20028;-81
2021/05/04 00:16:16;;;;;;;3.25;1.60;;;12.90;58.00;;;;;;5084904;28;20072;-80
2021/05/04 00:18:42;;;;;;;4.78;1.73;;;12.60;59.70;;;;;;5091668;28;20031;-80
2021/05/04 00:21:07;;;;;;;6.75;1.70;;;12.50;61.90;;;;;;5085855;28;20503;-81
2021/05/04 00:23:33;;;;;;;5.00;2.30;;;12.10;62.50;;;;;;5076285;28;20040;-80
2021/05/04 00:25:59;;;;;;;7.78;1.95;;;12.10;64.10;;;;;;5052927;28;20020;-80
2021/05/04 00:28:24;;;;;;;6.25;1.67;;;11.90;66.00;;;;;;5049976;28;20107;-81
2021/05/04 00:30:50;;;;;;;5.30;2.10;;;11.70;66.90;;;;;;5071791;28;20488;-81
2021/05/04 00:33:16;;;;;;;7.30;1.90;;;11.50;68.20;;;;;;5052896;28;20016;-80
2021/05/04 00:35:41;;;;;;;5.03;1.60;;;11.50;70.30;;;;;;5069805;28;20017;-81
2021/05/04 00:38:07;;;;;;;3.42;1.35;;;11.40;72.00;;;;;;5072616;28;20017;-80
2021/05/04 00:40:32;;;;;;;9.32;2.00;;;11.40;72.40;;;;;;5052514;28;20468;-80
2021/05/04 00:42:58;;;;;;;9.68;2.03;;;11.20;74.20;;;;;;5051211;28;20472;-80
2021/05/04 00:45:24;;;;;;;8.35;1.92;;;11.10;77.10;;;;;;5066357;28;20024;-81
2021/05/04 00:47:49;;;;;;;9.90;2.20;;;10.70;80.50;;;;;;5051510;28;20391;-81
2021/05/04 00:50:15;;;;;;;8.50;2.42;;;10.50;82.40;;;;;;5052638;28;20020;-82
2021/05/04 00:52:41;;;;;;;8.05;2.60;;;10.30;84.50;;;;;;5051883;28;20016;-81
2021/05/04 00:55:07;;;;;;;8.18;2.33;;;10.20;87.60;;;;;;5049474;28;20025;-81
2021/05/04 00:57:34;;;;;;;10.25;2.50;;;10.00;89.00;;;;;;5066504;28;20017;-80
2021/05/04 01:00:04;;;;;;;5.00;2.28;;;9.90;91.60;;;;;;5053846;28;20017;-81
2021/05/04 01:02:33;;;;;;;7.38;2.20;;;9.70;92.90;;;;;;5053663;28;20506;-81
2021/05/04 01:05:00;;;;;;;9.98;2.97;;;9.60;94.00;;;;;;5067175;28;20095;-80
2021/05/04 01:07:27;;;;;;;6.15;2.30;;;9.40;96.30;;;;;;5068313;28;20050;-80
2021/05/04 01:09:53;;;;;;;6.13;2.60;;;9.20;96.90;;;;;;5051694;28;20044;-81
2021/05/04 01:12:19;;;;;;;4.82;2.72;;;9.10;98.30;;;;;;5069005;28;20510;-81
2021/05/04 01:14:45;;;;;;;4.53;2.97;;;9.00;99.40;;;;;;5066533;28;20423;-83
2021/05/04 01:17:10;;;;;;;6.25;3.20;;;8.80;99.90;;;;;;5067569;28;20031;-82
2021/05/04 01:19:36;;;;;;;12.02;3.75;;;8.70;99.90;;;;;;5046891;28;20033;-82
2021/05/04 01:22:01;;;;;;;9.15;3.58;;;8.60;99.90;;;;;;5043951;28;20548;-82
2021/05/04 01:24:27;;;;;;;5.78;3.03;;;8.70;99.90;;;;;;5051221;28;20460;-82
2021/05/04 01:26:53;;;;;;;7.85;3.17;;;8.70;99.90;;;;;;5050850;28;20066;-81
2021/05/04 01:29:18;;;;;;;7.80;3.03;;;8.70;99.90;;;;;;5049884;28;20519;-81
2021/05/04 01:31:44;;;;;;;8.70;4.47;;;8.70;99.90;;;;;;5051998;28;20055;-81
2021/05/04 01:34:12;;;;;;;7.40;3.40;;;8.70;99.90;;;;;;5050515;28;20119;-81
2021/05/04 01:36:38;;;;;;;4.15;2.85;;;8.60;99.90;;;;;;5051697;28;20017;-80
2021/05/04 01:39:05;;;;;;;8.48;3.35;;;8.60;99.90;;;;;;5050419;28;20017;-81
2021/05/04 01:41:31;;;;;;;5.78;3.47;;;8.60;99.90;;;;;;5073653;28;20032;-80
2021/05/04 01:43:58;;;;;;;5.20;3.25;;;8.70;99.90;;;;;;5055075;28;20021;-81
2021/05/04 01:46:24;;;;;;;4.70;3.22;;;8.70;99.90;;;;;;5073944;28;20379;-80
2021/05/04 01:48:49;;;;;;;7.55;3.10;;;8.70;99.90;;;;;;5071176;28;20123;-79
2021/05/04 01:51:16;;;;;;;5.10;3.83;;;8.70;99.90;;;;;;5070750;28;20021;-80
2021/05/04 01:53:41;;;;;;;7.75;3.53;;;8.70;99.90;;;;;;5051671;28;20377;-80
2021/05/04 01:56:07;;;;;;;5.10;3.15;;;8.70;99.90;;;;;;5049924;28;20020;-80
2021/05/04 01:58:32;;;;;;;4.93;3.80;;;8.70;99.90;;;;;;5071307;28;20086;-81
2021/05/04 02:00:58;;;;;;;7.38;4.28;;;8.60;99.90;;;;;;5071333;28;20024;-80
2021/05/04 02:03:23;;;;;;;6.82;4.07;;;8.60;99.90;;;;;;5051325;28;20430;-80
2021/05/04 02:05:49;;;;;;;8.13;4.57;;;8.60;99.90;;;;;;5049632;28;20392;-80
2021/05/04 02:08:14;;;;;;;6.50;4.15;;;8.60;99.90;;;;;;5069608;28;20017;-80
2021/05/04 02:10:40;;;;;;;8.07;4.70;;;8.60;99.90;;;;;;5052199;28;20021;-80
2021/05/04 02:13:06;;;;;;;5.85;4.50;;;8.50;99.90;;;;;;5069436;28;20017;-80
2021/05/04 02:15:32;;;;;;;6.32;4.22;;;8.60;99.90;;;;;;5051868;28;20024;-80
2021/05/04 02:17:57;;;;;;;4.72;4.18;;;8.50;99.90;;;;;;5052897;28;20024;-81
2021/05/04 02:20:23;;;;;;;6.13;4.10;;;8.50;99.90;;;;;;5050890;28;20025;-80
2021/05/04 02:22:49;;;;;;;5.35;4.18;;;8.50;99.90;;;;;;5067495;28;20519;-80
2021/05/04 02:25:14;;;;;;;6.05;3.88;;;8.50;99.90;;;;;;5069298;28;20035;-80
2021/05/04 02:27:40;;;;;;;8.55;4.40;;;8.50;99.90;;;;;;5052153;28;20119;-80
2021/05/04 02:30:06;;;;;;;5.00;3.92;;;8.50;99.90;;;;;;5066312;28;20025;-80
2021/05/04 02:32:35;;;;;;;5.97;3.75;;;8.50;99.90;;;;;;5069210;28;20021;-79
2021/05/04 02:35:05;;;;;;;8.30;3.57;;;8.50;99.90;;;;;;5067191;28;20024;-80
2021/05/04 02:37:31;;;;;;;5.80;3.67;;;8.60;99.90;;;;;;5052101;28;20162;-79
2021/05/04 02:39:57;;;;;;;5.88;3.70;;;8.60;99.90;;;;;;5050892;28;20139;-79
2021/05/04 02:42:23;;;;;;;7.78;4.00;;;8.60;99.90;;;;;;5052797;28;20111;-80
2021/05/04 02:44:48;;;;;;;6.53;3.90;;;8.60;99.90;;;;;;5055276;28;20028;-80
2021/05/04 02:47:14;;;;;;;10.60;3.90;;;8.60;99.90;;;;;;5072175;28;20019;-79
2021/05/04 02:49:39;;;;;;;5.57;3.92;;;8.50;99.90;;;;;;5054723;28;20555;-79
2021/05/04 02:52:05;;;;;;;17.33;4.45;;;8.60;99.90;;;;;;5052960;28;20036;-79
2021/05/04 02:54:31;;;;;;;3.83;3.25;;;8.60;99.90;;;;;;5055525;28;20060;-79
2021/05/04 02:56:56;;;;;;;4.60;3.90;;;8.60;99.90;;;;;;5053216;28;20551;-80
2021/05/04 02:59:22;;;;;;;6.85;3.78;;;8.60;99.90;;;;;;5055707;28;20035;-79
2021/05/04 03:01:47;;;;;;;5.68;2.90;;;8.60;99.90;;;;;;5056553;28;20090;-80
2021/05/04 03:04:13;;;;;;;7.03;3.05;;;8.60;99.90;;;;;;5053901;28;20032;-79
2021/05/04 03:06:38;;;;;;;5.15;3.40;;;8.70;99.90;;;;;;5066781;28;20078;-79
2021/05/04 03:09:04;;;;;;;4.90;2.78;;;8.70;99.90;;;;;;5052862;28;20021;-80
2021/05/04 03:11:30;;;;;;;7.75;3.08;;;8.70;99.90;;;;;;5055239;28;20498;-79
2021/05/04 03:13:56;;;;;;;4.50;3.10;;;8.80;99.90;;;;;;5072117;28;20091;-80
2021/05/04 03:16:21;;;;;;;6.05;3.05;;;8.80;99.90;;;;;;5061713;28;20029;-80
2021/05/04 03:18:47;;;;;;;6.30;3.08;;;8.90;99.90;;;;;;5074040;28;20024;-80
2021/05/04 03:21:12;;;;;;;4.30;3.22;;;8.90;99.90;;;;;;5053533;28;20107;-80
2021/05/04 03:23:38;;;;;;;5.25;3.28;;;8.90;99.90;;;;;;5071938;28;20396;-80
2021/05/04 03:26:04;;;;;;;5.20;2.88;;;8.90;99.90;;;;;;5052549;28;20115;-80
2021/05/04 03:28:29;;;;;;;4.50;3.42;;;8.90;99.90;;;;;;5072938;28;20024;-81
2021/05/04 03:30:55;;;;;;;5.93;3.13;;;8.80;99.90;;;;;;5054862;28;20509;-80
2021/05/04 03:33:20;;;;;;;5.68;2.70;;;8.80;99.90;;;;;;5069614;28;20025;-80
2021/05/04 03:35:46;;;;;;;4.88;2.78;;;8.90;99.90;;;;;;5054519;28;20024;-81
2021/05/04 03:38:11;;;;;;;4.32;2.90;;;8.80;99.90;;;;;;5053487;28;20020;-81
2021/05/04 03:40:37;;;;;;;6.10;3.00;;;8.80;99.90;;;;;;5072753;28;20028;-80
2021/05/04 03:43:03;;;;;;;4.85;3.47;;;8.70;99.90;;;;;;5055432;28;20075;-80
2021/05/04 03:45:29;;;;;;;7.43;3.28;;;8.70;99.90;;;;;;5055430;28;20101;-81
2021/05/04 03:47:55;;;;;;;6.60;3.63;;;8.70;99.90;;;;;;5055992;28;20047;-81
2021/05/04 03:50:23;;;;;;;5.55;3.80;;;8.60;99.90;;;;;;5051183;28;20098;-81
2021/05/04 03:52:50;;;;;;;5.70;3.13;;;8.60;99.90;;;;;;5054016;28;20020;-80
2021/05/04 03:55:16;;;;;;;7.75;3.45;;;8.50;99.90;;;;;;5069814;28;20021;-81
2021/05/04 03:57:42;;;;;;;6.93;3.83;;;8.50;99.90;;;;;;5054768;28;20013;-80
2021/05/04 04:00:09;;;;;;;5.38;3.17;;;8.50;99.90;;;;;;5073161;28;20035;-80
2021/05/04 04:02:35;;;;;;;5.18;3.28;;;8.50;99.90;;;;;;5054387;28;20017;-80
2021/05/04 04:05:01;;;;;;;6.20;3.63;;;8.40;99.90;;;;;;5055766;28;20017;-81
2021/05/04 04:07:27;;;;;;;4.43;3.03;;;8.40;99.90;;;;;;5050916;28;20035;-81
2021/05/04 04:09:53;;;;;;;5.35;3.53;;;8.50;99.90;;;;;;5051201;28;20016;-81
2021/05/04 04:12:18;;;;;;;7.03;3.20;;;8.50;99.90;;;;;;5070312;28;20039;-81
2021/05/04 04:14:44;;;;;;;4.85;3.25;;;8.60;99.90;;;;;;5054597;28;20016;-82
2021/05/04 04:17:09;;;;;;;5.72;3.28;;;8.60;99.90;;;;;;5053352;28;20024;-81
2021/05/04 04:19:35;;;;;;;7.15;3.22;;;8.60;99.90;;;;;;5054077;28;20104;-81
2021/05/04 04:22:00;;;;;;;7.55;3.35;;;8.60;99.90;;;;;;5055179;28;20025;-81
2021/05/04 04:24:26;;;;;;;5.15;3.72;;;8.50;99.90;;;;;;5050591;28;20025;-81
2021/05/04 04:26:51;;;;;;;5.47;2.90;;;8.60;99.90;;;;;;5071493;28;20484;-80
2021/05/04 04:29:17;;;;;;;4.55;3.08;;;8.50;99.90;;;;;;5052108;28;20544;-80
2021/05/04 04:31:42;;;;;;;5.30;3.60;;;8.40;99.90;;;;;;5052385;28;20622;-80
2021/05/04 04:34:08;;;;;;;8.38;4.45;;;8.40;99.90;;;;;;5071011;28;20464;-81
2021/05/04 04:36:34;;;;;;;9.35;3.58;;;8.40;99.90;;;;;;5051453;28;20104;-81
2021/05/04 04:39:01;;;;;;;6.65;3.22;;;8.40;99.90;;;;;;5048462;28;20170;-80
2021/05/04 04:41:26;;;;;;;4.53;3.40;;;8.40;99.90;;;;;;5053994;28;20032;-81
2021/05/04 04:43:52;;;;;;;5.90;3.60;;;8.40;99.90;;;;;;5053499;28;20024;-81
2021/05/04 04:46:18;;;;;;;6.50;3.10;;;8.50;99.90;;;;;;5054250;28;20031;-80
2021/05/04 04:48:43;;;;;;;6.93;3.08;;;8.50;99.90;;;;;;5070283;28;20025;-80
2021/05/04 04:51:09;;;;;;;3.97;3.20;;;8.60;99.90;;;;;;5066625;28;20388;-80
2021/05/04 04:53:34;;;;;;;6.28;2.83;;;8.60;99.90;;;;;;5048192;28;20387;-80
2021/05/04 04:56:00;;;;;;;6.60;2.83;;;8.60;99.90;;;;;;5066075;28;20032;-80
2021/05/04 04:58:26;;;;;;;5.35;2.67;;;8.70;99.90;;;;;;5071605;28;20035;-80
2021/05/04 05:00:52;;;;;;;5.57;2.47;;;8.80;99.90;;;;;;5047784;28;20028;-79
2021/05/04 05:03:17;;;;;;;7.00;2.30;;;8.80;99.90;;;;;;5066021;28;20464;-79
2021/05/04 05:05:43;;;;;;;5.47;2.00;;;8.90;99.90;;;;;;5065469;28;20032;-80
2021/05/04 05:08:08;;;;;;;5.90;2.60;;;9.00;99.90;;;;;;5052007;28;20021;-80
2021/05/04 05:10:34;;;;;;;3.72;2.28;;;9.00;99.90;;;;;;5068740;28;20028;-80
2021/05/04 05:12:59;;;;;;;4.25;1.90;;;9.10;99.90;;;;;;5070782;28;20016;-80
2021/05/04 05:15:26;;;;;;;2.70;1.67;;;9.20;99.90;;;;;;5051608;28;20021;-80
2021/05/04 05:17:51;;;;;;;5.50;2.08;;;9.20;99.90;;;;;;5052785;28;20028;-80
2021/05/04 05:20:17;;;;;;;3.03;1.83;;;9.30;99.90;;;;;;5071927;28;20020;-80
2021/05/04 05:22:46;;;;;;;8.20;2.00;;;9.40;99.90;;;;;;5062549;28;20040;-79
2021/05/04 05:25:12;;;;;;;3.75;2.45;;;9.40;99.90;;;;;;5090076;28;20383;-81
2021/05/04 05:27:38;;;;;;;3.83;1.73;;;9.50;99.90;;;;;;5087218;28;20063;-80
2021/05/04 05:30:10;;;;;;;5.30;1.70;;;9.50;99.90;;;;;;5089236;28;20048;-81
2021/05/04 05:32:36;;;;;;;5.70;1.67;;;9.60;99.90;;;;;;5089636;28;20032;-80
2021/05/04 05:35:01;;;;;;;5.78;1.98;;;9.60;99.90;;;;;;5086613;28;20013;-81
2021/05/04 05:37:27;;;;;;;3.88;1.38;;;9.70;99.90;;;;;;5089569;28;20107;-80
2021/05/04 05:39:53;;;;;;;5.13;1.27;;;9.70;99.90;;;;;;5092758;28;20050;-81
2021/05/04 05:42:19;;;;;;;4.18;1.00;;;9.70;99.90;;;;;;5091317;28;20020;-80
2021/05/04 05:44:44;;;;;;;5.53;1.50;;;9.70;99.90;;;;;;5082600;28;20033;-80
2021/05/04 05:47:10;;;;;;;4.80;1.60;;;9.70;99.90;;;;;;5071383;28;20075;-81
2021/05/04 05:49:37;;;;;;;4.38;1.38;;;9.70;99.90;;;;;;5065640;28;20503;-80
2021/05/04 05:52:03;;;;;;;6.78;1.17;;;9.70;99.90;;;;;;5058638;28;20056;-80
2021/05/04 05:54:31;;;;;;;4.18;1.30;;;9.60;99.90;;;;;;5051440;28;20518;-80
2021/05/04 05:56:57;;;;;;;7.10;1.40;;;9.60;99.90;;;;;;5051503;28;20029;-81
2021/05/04 05:59:22;;;;;;;5.45;1.42;;;9.50;99.90;;;;;;5051670;28;20116;-81
2021/05/04 06:01:48;;;;;;;4.82;1.20;;;9.60;99.90;;;;;;5051499;28;20461;-81
2021/05/04 06:04:13;;;;;;;4.53;1.42;;;9.60;99.90;;;;;;5051604;28;20021;-81
2021/05/04 06:06:39;;;;;;;4.60;1.05;;;9.70;99.90;;;;;;5057460;28;20025;-81
2021/05/04 06:09:04;;;;;;;4.45;1.10;;;9.80;99.90;;;;;;5056726;28;20477;-81
2021/05/04 06:11:30;;;;;;;4.38;0.98;;;9.80;99.90;;;;;;5062265;28;20511;-81
2021/05/04 06:13:55;;;;;;;5.25;1.20;;;9.90;99.90;;;;;;5072706;28;20408;-81
2021/05/04 06:16:21;;;;;;;4.15;1.20;;;9.90;99.90;;;;;;5060798;28;20490;-81
2021/05/04 06:18:47;;;;;;;7.70;1.25;;;9.90;99.90;;;;;;5052055;28;20029;-81
2021/05/04 06:21:12;;;;;;;5.65;1.75;;;9.90;99.90;;;;;;5056826;28;20434;-81
2021/05/04 06:23:38;;;;;;;7.20;1.30;;;9.90;99.90;;;;;;5041450;28;20125;-82
2021/05/04 06:26:04;;;;;;;8.20;1.70;;;9.90;99.90;;;;;;5018736;28;20025;-82
2021/05/04 06:28:30;;;;;;;7.80;1.58;;;9.90;99.90;;;;;;5036754;28;20026;-81
2021/05/04 06:30:55;;;;;;;7.53;2.05;;;9.90;99.90;;;;;;5028932;28;20032;-80
2021/05/04 06:33:21;;;;;;;5.75;1.67;;;9.70;99.90;;;;;;5037983;28;20009;-81
2021/05/04 06:35:49;;;;;;;11.10;2.33;;;9.50;99.90;;;;;;5037460;28;20037;-81
2021/05/04 06:38:16;;;;;;;11.38;2.42;;;9.40;99.90;;;;;;5055894;28;20024;-82
2021/05/04 06:40:44;;;;;;;7.35;2.20;;;9.30;99.90;;;;;;5037730;28;20053;-81
2021/05/04 06:43:10;;;;;;;12.00;2.58;;;9.30;99.90;;;;;;5038192;28;20384;-81
2021/05/04 06:45:37;;;;;;;9.73;2.25;;;9.40;99.90;;;;;;5038388;28;20048;-82
2021/05/04 06:48:03;;;;;;;6.95;2.22;;;9.40;99.90;;;;;;5056307;28;20033;-82
2021/05/04 06:50:28;;;;;;;5.15;2.25;;;9.50;99.90;;;;;;5056113;28;20029;-81
2021/05/04 06:52:54;;;;;;;8.40;2.67;;;9.50;99.90;;;;;;5056069;28;20021;-81
2021/05/04 06:55:20;;;;;;;12.15;2.70;;;9.50;99.90;;;;;;5055887;28;20025;-81
2021/05/04 06:57:46;;;;;;;8.00;2.22;;;9.40;99.90;;;;;;5040740;28;20188;-83
2021/05/04 07:00:12;;;;;;;4.45;1.70;;;9.30;99.90;;;;;;5017579;28;20029;-82
2021/05/04 07:02:38;;;;;;;8.45;2.35;;;9.30;99.90;;;;;;5023048;28;20108;-82
2021/05/04 07:05:05;;;;;;;7.43;1.75;;;9.30;99.90;;;;;;5037452;28;20167;-82
2021/05/04 07:07:31;;;;;;;5.20;1.70;;;9.30;99.90;;;;;;5055337;28;20017;-83
2021/05/04 07:09:57;;;;;;;5.28;2.05;;;9.30;99.90;;;;;;5037156;28;20476;-83
2021/05/04 07:12:22;;;;;;;8.52;2.70;;;9.40;99.90;;;;;;5055056;28;20086;-82
2021/05/04 07:14:48;;;;;;;5.10;2.60;;;9.40;99.90;;;;;;5037061;28;20533;-83
2021/05/04 07:17:13;;;;;;;6.70;2.40;;;9.50;99.90;;;;;;5035996;28;20017;-82
2021/05/04 07:19:39;;;;;;;7.78;2.50;;;9.50;99.90;;;;;;5025943;28;20033;-83
2021/05/04 07:22:09;;;;;;;8.68;3.00;;;9.50;99.90;;;;;;5050748;28;20021;-84
2021/05/04 07:24:34;;;;;;;9.27;3.63;;;9.30;99.90;;;;;;5035864;28;20032;-82
2021/05/04 07:27:00;;;;;;;10.75;3.10;;;9.20;99.90;;;;;;5044176;28;20033;-82
2021/05/04 07:29:26;;;;;;;10.15;3.10;;;9.10;99.90;;;;;;5032055;28;20025;-83
2021/05/04 07:31:51;;;;;;;10.98;3.17;;;9.00;99.90;;;;;;5036361;28;20029;-82
2021/05/04 07:34:17;;;;;;;15.40;3.72;;;9.00;99.90;;;;;;5046673;28;20052;-81
2021/05/04 07:36:42;;;;;;;8.80;2.63;;;8.90;99.90;;;;;;5036589;28;20068;-81
2021/05/04 07:39:08;;;;;;;7.07;3.38;;;8.80;99.90;;;;;;5035515;28;20025;-82
2021/05/04 07:41:35;;;;;;;8.52;2.50;;;8.80;99.90;;;;;;5033726;28;20074;-82
2021/05/04 07:44:01;;;;;;;8.13;2.53;;;8.70;99.90;;;;;;5033722;28;20022;-81
2021/05/04 07:46:26;;;;;;;10.95;2.95;;;8.70;99.90;;;;;;5036687;28;20037;-81
2021/05/04 07:48:53;;;;;;;10.95;2.70;;;8.70;99.90;;;;;;5037192;28;20078;-81
2021/05/04 07:51:19;;;;;;;14.05;2.67;;;8.70;99.90;;;;;;5037174;28;20025;-81
2021/05/04 07:53:45;;;;;;;10.88;2.58;;;8.70;99.90;;;;;;5036791;28;20071;-81
2021/05/04 07:56:11;;;;;;;12.82;3.30;;;8.80;99.90;;;;;;5032078;28;20088;-81
2021/05/04 07:58:37;;;;;;;14.75;3.90;;;8.90;99.90;;;;;;5034905;28;20021;-83
2021/05/04 08:01:03;;;;;;;9.40;2.63;;;9.00;99.90;;;;;;5034937;28;20495;-82
2021/05/04 08:03:29;;;;;;;13.38;3.72;;;9.10;99.90;;;;;;5034866;28;20033;-81
2021/05/04 08:05:54;;;;;;;14.32;3.63;;;9.20;99.90;;;;;;5017197;28;20392;-81
2021/05/04 08:08:20;;;;;;;12.57;3.58;;;9.30;99.90;;;;;;5034667;28;20041;-82
2021/05/04 08:10:46;;;;;;;13.35;3.58;;;9.40;99.90;;;;;;5034630;28;20025;-82
2021/05/04 08:13:12;;;;;;;12.13;3.85;;;9.50;99.90;;;;;;5026409;28;20025;-82
2021/05/04 08:15:39;;;;;;;14.75;4.47;;;9.70;99.90;;;;;;5031855;28;20495;-82
2021/05/04 08:18:12;;;;;;;10.65;3.67;;;9.90;99.90;;;;;;5032966;28;20021;-83
2021/05/04 08:20:45;;;;;;;15.45;3.75;;;10.10;99.90;;;;;;5027266;28;20079;-82
2021/05/04 08:23:11;;;;;;;16.98;3.80;;;10.20;99.90;;;;;;5035396;28;20055;-82
2021/05/04 08:25:37;;;;;;;17.35;3.75;;;10.30;99.90;;;;;;5055038;28;20028;-82
2021/05/04 08:28:02;;;;;;;10.48;2.92;;;10.50;99.90;;;;;;5072710;28;20082;-82
2021/05/04 08:30:28;;;;;;;15.65;4.57;;;10.60;99.90;;;;;;5072536;28;20051;-82
2021/05/04 08:32:54;;;;;;;13.40;5.05;;;10.60;99.90;;;;;;5062378;28;20035;-83
2021/05/04 08:35:19;;;;;;;16.20;3.47;;;10.50;99.90;;;;;;5063122;28;20017;-83
2021/05/04 08:37:45;;;;;;;12.43;3.80;;;10.50;99.90;;;;;;5063889;28;20027;-83
2021/05/04 08:40:11;;;;;;;18.15;4.93;;;10.50;99.90;;;;;;5033593;28;20032;-84
2021/05/04 08:42:37;;;;;;;14.65;4.50;;;10.50;99.90;;;;;;5037370;28;20021;-83
2021/05/04 08:45:05;;;;;;;14.25;3.08;;;10.50;99.90;;;;;;5053730;28;20487;-85
2021/05/04 08:47:31;;;;;;;12.05;3.42;;;10.50;99.90;;;;;;5057702;28;20082;-82
2021/05/04 08:49:57;;;;;;;11.27;3.33;;;10.40;99.90;;;;;;5055981;28;20111;-84
2021/05/04 08:52:23;;;;;;;12.13;4.10;;;10.20;99.90;;;;;;5051540;28;20504;-84
2021/05/04 08:54:48;;;;;;;16.25;3.55;;;9.90;99.90;;;;;;5032717;28;20033;-82
2021/05/04 08:57:14;;;;;;;12.95;3.85;;;9.60;99.90;;;;;;5036190;28;20179;-82
2021/05/04 08:59:40;;;;;;;9.90;3.08;;;9.50;99.90;;;;;;5062837;28;20106;-81
2021/05/04 09:02:05;;;;;;;10.07;2.70;;;9.40;99.90;;;;;;5062151;28;20024;-81
2021/05/04 09:04:39;;;;;;;10.85;3.15;;;9.50;99.90;;;;;;5063422;28;20028;-82
2021/05/04 09:07:26;;;;;;;7.68;2.38;;;9.60;99.90;;;;;;5061337;28;20017;-82
2021/05/04 09:10:25;;;;;;;11.52;2.95;;;9.90;99.90;;;;;;5063562;28;20029;-82
2021/05/04 09:21:09;;;;;;;11.23;2.63;;;10.30;99.90;;;;;;5060908;28;20020;-81
2021/05/04 09:23:36;;;;;;;10.13;2.97;;;10.20;99.90;;;;;;5069953;28;20182;-81
2021/05/04 09:26:02;;;;;;;14.07;3.20;;;10.10;99.90;;;;;;5052135;28;20013;-82
2021/05/04 09:28:28;;;;;;;10.73;2.97;;;10.10;99.90;;;;;;5055347;28;20034;-82
2021/05/04 09:30:56;;;;;;;9.30;2.78;;;10.20;99.90;;;;;;5079979;28;20120;-81
2021/05/04 09:33:23;;;;;;;9.85;2.95;;;10.30;99.90;;;;;;5070371;28;20035;-81
2021/05/04 09:35:49;;;;;;;7.07;2.60;;;10.60;99.90;;;;;;5072936;28;20025;-82
2021/05/04 09:38:19;;;;;;;9.65;3.40;;;10.90;99.90;;;;;;5054637;28;20025;-82
2021/05/04 09:40:46;;;;;;;13.45;2.58;;;11.20;99.90;;;;;;5052714;28;20032;-83
2021/05/04 09:43:27;;;;;;;10.93;2.40;;;11.30;99.90;;;;;;5054456;28;20416;-82
2021/05/04 09:45:55;;;;;;;14.18;2.85;;;11.20;99.90;;;;;;5071217;28;20042;-82
2021/05/04 09:48:22;;;;;;;13.73;3.67;;;10.80;99.90;;;;;;5051747;28;20038;-82
2021/05/04 09:51:11;;;;;;;11.93;3.17;;;10.20;99.90;;;;;;5054358;28;20057;-82
2021/05/04 09:53:59;;;;;;;14.98;2.90;;;9.70;99.90;;;;;;5079346;28;20426;-82
2021/05/04 09:56:33;;;;;;;10.70;2.53;;;9.30;99.90;;;;;;5052232;28;20016;-82
2021/05/04 09:58:59;;;;;;;12.45;2.40;;;9.10;99.90;;;;;;5054211;28;20013;-83
2021/05/04 10:01:24;;;;;;;7.47;2.00;;;9.20;99.90;;;;;;5072275;28;20418;-82
2021/05/04 10:03:52;;;;;;;14.93;2.58;;;9.50;99.90;;;;;;5072207;28;20036;-81
2021/05/04 10:06:19;;;;;;;21.15;3.40;;;10.40;99.90;;;;;;5082200;28;20434;-81
2021/05/04 10:08:47;;;;;;;13.73;3.22;;;10.20;99.90;;;;;;5072447;28;20025;-81
2021/05/04 10:11:14;;;;;;;8.65;3.00;;;10.00;99.90;;;;;;5054016;28;20020;-80
2021/05/04 10:13:42;;;;;;;12.80;2.08;;;9.90;99.90;;;;;;5071877;28;20490;-80
2021/05/04 10:16:10;;;;;;;11.45;2.33;;;9.80;99.90;;;;;;5063484;28;20029;-81
2021/05/04 10:18:36;;;;;;;11.05;2.13;;;9.30;99.90;;;;;;5035464;28;20028;-83
2021/05/04 10:21:04;;;;;;;11.40;1.88;;;8.70;99.90;;;;;;5034810;28;20029;-82
2021/05/04 10:23:32;;;;;;;8.85;1.80;;;8.40;99.90;;;;;;5044708;28;20118;-82
2021/05/04 10:26:00;;;;;;;9.80;2.35;;;8.10;99.90;;;;;;5051064;28;20057;-81
2021/05/04 10:28:37;;;;;;;7.45;1.20;;;8.10;99.90;;;;;;5052442;28;20021;-81
2021/05/04 10:31:05;;;;;;;7.03;0.75;;;8.20;99.90;;;;;;5052332;28;20033;-81
2021/05/04 10:33:42;;;;;;;4.93;0.68;;;8.00;99.90;;;;;;5051222;28;20095;-82
2021/05/04 10:36:33;;;;;;;6.65;1.10;;;8.00;99.90;;;;;;5052245;28;20096;-81
2021/05/04 10:39:00;;;;;;;5.55;1.48;;;9.20;99.90;;;;;;5051173;28;20021;-81
2021/05/04 10:41:26;;;;;;;4.90;1.15;;;11.00;99.90;;;;;;5055941;28;20024;-82
2021/05/04 10:44:03;;;;;;;6.82;1.63;;;12.40;99.80;;;;;;5089563;28;20028;-83
2021/05/04 10:46:33;;;;;;;5.72;1.20;;;12.90;94.80;;;;;;5087597;28;20103;-83
2021/05/04 10:48:58;;;;;;;5.90;0.93;;;12.40;94.60;;;;;;5088411;28;20400;-82
2021/05/04 10:51:51;;;;;;;9.82;1.50;;;12.00;94.40;;;;;;5072656;28;20687;-83
2021/05/04 10:54:22;;;;;;;4.22;1.00;;;11.60;93.50;;;;;;5082308;28;20119;-82
2021/05/04 10:56:55;;;;;;;2.33;0.68;;;11.20;95.00;;;;;;5085174;28;20016;-81
2021/05/04 10:59:23;;;;;;;4.97;0.88;;;12.00;96.10;;;;;;5083863;28;20393;-81
2021/05/04 11:02:07;;;;;;;3.33;1.00;;;12.50;91.60;;;;;;5086573;28;20028;-81
2021/05/04 11:04:41;;;;;;;5.40;1.27;;;12.20;90.20;;;;;;5080604;28;20111;-81
2021/05/04 11:07:07;;;;;;;2.28;0.73;;;11.70;90.40;;;;;;5091241;28;20042;-80
2021/05/04 11:09:38;;;;;;;4.05;1.02;;;11.30;90.90;;;;;;5091362;28;20535;-82
2021/05/04 11:12:04;;;;;;;6.72;1.23;;;11.00;92.50;;;;;;5092416;28;20119;-81
2021/05/04 11:14:30;;;;;;;6.13;1.10;;;10.80;90.80;;;;;;5087124;28;20074;-82
2021/05/04 11:16:56;;;;;;;3.42;1.00;;;10.80;91.60;;;;;;5090809;28;20018;-81
2021/05/04 11:19:31;;;;;;;4.15;1.15;;;10.70;91.50;;;;;;5090148;28;20082;-82
2021/05/04 11:22:07;;;;;;;5.75;1.63;;;10.50;92.60;;;;;;5088066;28;20051;-82
2021/05/04 11:24:33;;;;;;;2.95;1.00;;;9.80;96.30;;;;;;5061224;28;20056;-83
2021/05/04 11:27:05;;;;;;;2.92;0.80;;;9.20;98.90;;;;;;5020031;28;20437;-84
2021/05/04 11:29:30;;;;;;;4.50;1.08;;;8.80;99.30;;;;;;5046755;28;20057;-82
2021/05/04 11:32:15;;;;;;;5.38;1.08;;;8.80;99.90;;;;;;5097042;27;20408;-82
2021/05/04 11:34:57;;;;;;;3.55;0.95;;;9.20;99.90;;;;;;5097360;28;20663;-82
2021/05/04 11:37:23;;;;;;;4.00;0.98;;;10.50;97.90;;;;;;5090487;28;20051;-82
2021/05/04 11:39:55;;;;;;;7.00;1.45;;;12.00;94.70;;;;;;5092425;28;20480;-81
2021/05/04 11:42:25;;;;;;;2.78;0.70;;;13.30;90.90;;;;;;5091252;28;20360;-82
2021/05/04 11:44:50;;;;;;;8.05;0.90;;;14.40;84.20;;;;;;5092371;28;20021;-81
2021/05/04 11:47:26;;;;;;;3.30;0.63;;;13.90;78.80;;;;;;5093097;28;20046;-81
2021/05/04 11:50:15;;;;;;;3.83;0.77;;;12.90;83.90;;;;;;5098590;28;20035;-83
2021/05/04 11:52:43;;;;;;;4.18;0.70;;;12.20;81.60;;;;;;5088311;28;20387;-82
2021/05/04 11:55:22;;;;;;;3.33;0.85;;;11.70;83.20;;;;;;5089741;28;20027;-81
2021/05/04 11:57:54;;;;;;;3.78;0.68;;;11.40;86.10;;;;;;5088221;28;20016;-81
2021/05/04 12:00:21;;;;;;;6.07;0.60;;;11.20;84.90;;;;;;5088615;28;20078;-82
2021/05/04 12:02:47;;;;;;;4.40;0.70;;;11.10;84.40;;;;;;5087525;28;20043;-82
2021/05/04 12:05:22;;;;;;;4.95;0.70;;;11.00;84.60;;;;;;5088930;28;20471;-81
2021/05/04 12:07:48;;;;;;;2.72;0.40;;;10.90;86.10;;;;;;5092652;28;20086;-82
2021/05/04 12:10:14;;;;;;;5.22;0.95;;;10.80;88.70;;;;;;5091476;28;20494;-80
2021/05/04 12:12:46;;;;;;;8.02;0.80;;;10.70;88.00;;;;;;5094920;28;20078;-81
2021/05/04 12:15:14;;;;;;;4.55;0.65;;;10.90;89.70;;;;;;5091521;28;20024;-83
2021/05/04 12:17:40;;;;;;;2.20;0.50;;;12.20;84.40;;;;;;5094199;28;20054;-83
2021/05/04 12:20:17;;;;;;;5.13;0.70;;;12.40;79.30;;;;;;5092057;28;20379;-81
2021/05/04 12:22:47;;;;;;;6.22;0.60;;;12.10;78.30;;;;;;5094052;28;20110;-82
2021/05/04 12:25:15;;;;;;;3.05;0.57;;;11.80;79.20;;;;;;5091425;28;20032;-82
2021/05/04 12:27:42;;;;;;;4.80;0.85;;;11.50;81.20;;;;;;5094594;28;20106;-81
2021/05/04 12:30:11;;;;;;;3.55;0.40;;;11.30;81.60;;;;;;5090998;28;20147;-82
2021/05/04 12:32:37;;;;;;;4.88;0.68;;;11.20;83.40;;;;;;5094023;28;20547;-81
2021/05/04 12:35:58;;;;;;;5.90;1.48;;;11.10;83.10;;;;;;5091129;28;20035;-82
2021/05/04 12:38:23;;;;;;;4.10;0.60;;;11.00;82.40;;;;;;5087568;28;20035;-82
2021/05/04 12:41:16;;;;;;;3.65;0.60;;;10.70;85.20;;;;;;5091140;28;20506;-82
2021/05/04 12:46:46;;;;;;;1.52;0.40;;;10.80;89.10;;;;;;5074849;28;20041;-81
2021/05/04 12:49:13;;;;;;;3.97;0.55;;;11.00;86.10;;;;;;5075846;28;20083;-81
2021/05/04 12:51:48;;;;;;;5.28;0.80;;;11.20;85.40;;;;;;5072817;28;20039;-80
2021/05/04 12:54:22;;;;;;;2.13;0.43;;;11.50;83.30;;;;;;5073363;28;20131;-82
2021/05/04 12:56:50;;;;;;;2.92;0.50;;;11.50;81.80;;;;;;5074529;28;20035;-82
2021/05/04 12:59:26;;;;;;;4.82;0.60;;;11.50;82.10;;;;;;5073451;28;20434;-84
2021/05/04 13:01:58;;;;;;;6.85;1.70;;;11.50;81.80;;;;;;5074872;28;20125;-83
2021/05/04 13:04:43;;;;;;;3.50;0.57;;;11.40;80.80;;;;;;5074464;28;20023;-81